RYR23VX LIME-EKCH
Flight info
| Callsign | RYR23VX |
|---|---|
| Flight time | 1h 48m |
| Altitude | 38000 |
| Route | OSKOR DCT NESTI DCT TAGIP DCT TISAX DCT BRENO DCT KONIN DCT EXITI DCT EMBOX M726 ROSOK Q296 MONAK |
| Aircraft | B38M/M-SDE1FGHILORVWXY/HB1 |
Departure
| Time | 2026-04-23 13:53 |
|---|---|
| Airport | Il Caravaggio International Airport (LIME) |
Arrival
| Time | 2026-04-23 15:41 |
|---|---|
| Airport | Copenhagen Kastrup Airport (EKCH) |
| Time | Latitude | Longitude | Altitude | Speed | Heading |
|---|---|---|---|---|---|
| 2026-04-23 13:25 | 45.66651 | 9.69922 | 790 ft | 0 kts | 195° |
| 2026-04-23 13:44 | 45.66660 | 9.69925 | 790 ft | 3 kts | 195° |
| 2026-04-23 13:44 | 45.66680 | 9.69932 | 790 ft | 3 kts | 195° |
| 2026-04-23 13:45 | 45.66693 | 9.69937 | 790 ft | 3 kts | 195° |
| 2026-04-23 13:45 | 45.66718 | 9.69947 | 790 ft | 3 kts | 191° |
| 2026-04-23 13:45 | 45.66738 | 9.69949 | 790 ft | 3 kts | 168° |
| 2026-04-23 13:45 | 45.66752 | 9.69939 | 790 ft | 3 kts | 121° |
| 2026-04-23 13:46 | 45.66756 | 9.69925 | 790 ft | 2 kts | 105° |
| 2026-04-23 13:46 | 45.66761 | 9.69899 | 790 ft | 3 kts | 105° |
| 2026-04-23 13:46 | 45.66765 | 9.69880 | 790 ft | 1 kts | 105° |
| 2026-04-23 13:49 | 45.66763 | 9.69892 | 790 ft | 3 kts | 105° |
| 2026-04-23 13:49 | 45.66753 | 9.69944 | 790 ft | 8 kts | 105° |
| 2026-04-23 13:49 | 45.66733 | 9.70048 | 790 ft | 14 kts | 105° |
| 2026-04-23 13:49 | 45.66702 | 9.70206 | 790 ft | 19 kts | 105° |
| 2026-04-23 13:50 | 45.66665 | 9.70415 | 790 ft | 23 kts | 105° |
| 2026-04-23 13:50 | 45.66622 | 9.70647 | 790 ft | 25 kts | 105° |
| 2026-04-23 13:50 | 45.66577 | 9.70893 | 790 ft | 26 kts | 104° |
| 2026-04-23 13:50 | 45.66523 | 9.71143 | 790 ft | 27 kts | 114° |
| 2026-04-23 13:51 | 45.66465 | 9.71409 | 790 ft | 29 kts | 104° |
| 2026-04-23 13:51 | 45.66453 | 9.71690 | 790 ft | 29 kts | 76° |
| 2026-04-23 13:51 | 45.66452 | 9.71982 | 790 ft | 30 kts | 104° |
| 2026-04-23 13:51 | 45.66396 | 9.72279 | 790 ft | 31 kts | 105° |
| 2026-04-23 13:52 | 45.66424 | 9.72488 | 790 ft | 21 kts | 349° |
| 2026-04-23 13:52 | 45.66471 | 9.72374 | 790 ft | 7 kts | 286° |
| 2026-04-23 13:52 | 45.66521 | 9.72103 | 790 ft | 66 kts | 284° |
| 2026-04-23 13:52 | 45.66708 | 9.71101 | 790 ft | 139 kts | 285° |
| 2026-04-23 13:53 | 45.67005 | 9.69526 | 945 ft | 183 kts | 284° |
| 2026-04-23 13:53 | 45.67367 | 9.67791 | 1917 ft | 183 kts | 285° |
| 2026-04-23 13:53 | 45.67427 | 9.65944 | 2778 ft | 190 kts | 259° |
| 2026-04-23 13:53 | 45.66829 | 9.64206 | 3510 ft | 199 kts | 229° |
| 2026-04-23 13:54 | 45.65678 | 9.63036 | 4280 ft | 210 kts | 201° |
| 2026-04-23 13:54 | 45.64247 | 9.62756 | 5206 ft | 212 kts | 175° |
| 2026-04-23 13:54 | 45.62784 | 9.63306 | 5869 ft | 222 kts | 160° |
| 2026-04-23 13:54 | 45.61326 | 9.64122 | 6625 ft | 229 kts | 158° |
| 2026-04-23 13:55 | 45.59861 | 9.64962 | 7368 ft | 232 kts | 158° |
| 2026-04-23 13:55 | 45.58259 | 9.65519 | 8036 ft | 241 kts | 169° |
| 2026-04-23 13:55 | 45.56557 | 9.65768 | 8682 ft | 253 kts | 178° |
| 2026-04-23 13:55 | 45.54764 | 9.65609 | 9339 ft | 260 kts | 185° |
| 2026-04-23 13:56 | 45.52960 | 9.65258 | 10195 ft | 263 kts | 186° |
| 2026-04-23 13:56 | 45.51123 | 9.64884 | 10924 ft | 267 kts | 186° |
| 2026-04-23 13:56 | 45.49270 | 9.64510 | 11692 ft | 272 kts | 186° |
| 2026-04-23 13:56 | 45.47380 | 9.64128 | 12435 ft | 276 kts | 186° |
| 2026-04-23 13:57 | 45.45534 | 9.63296 | 13162 ft | 283 kts | 211° |
| 2026-04-23 13:57 | 45.44104 | 9.61415 | 13896 ft | 287 kts | 237° |
| 2026-04-23 13:57 | 45.43357 | 9.58797 | 14543 ft | 287 kts | 265° |
| 2026-04-23 13:57 | 45.43474 | 9.55999 | 15198 ft | 283 kts | 292° |
| 2026-04-23 13:58 | 45.44467 | 9.53676 | 15864 ft | 272 kts | 324° |
| 2026-04-23 13:58 | 45.45515 | 9.52730 | 16273 ft | 268 kts | 342° |
| 2026-04-23 13:58 | 45.47319 | 9.52222 | 16884 ft | 264 kts | 6° |
| 2026-04-23 13:58 | 45.49075 | 9.52853 | 17539 ft | 262 kts | 29° |
| 2026-04-23 13:59 | 45.50495 | 9.54488 | 18192 ft | 264 kts | 48° |
| 2026-04-23 13:59 | 45.51777 | 9.56392 | 18745 ft | 268 kts | 40° |
| 2026-04-23 13:59 | 45.53296 | 9.57961 | 19285 ft | 271 kts | 33° |
| 2026-04-23 13:59 | 45.54915 | 9.59361 | 19797 ft | 274 kts | 30° |
| 2026-04-23 14:00 | 45.56602 | 9.60679 | 20341 ft | 278 kts | 28° |
| 2026-04-23 14:00 | 45.58386 | 9.61779 | 20860 ft | 281 kts | 22° |
| 2026-04-23 14:00 | 45.60186 | 9.62833 | 21435 ft | 284 kts | 26° |
| 2026-04-23 14:00 | 45.61986 | 9.64051 | 21927 ft | 287 kts | 28° |
| 2026-04-23 14:01 | 45.63764 | 9.65381 | 22431 ft | 290 kts | 30° |
| 2026-04-23 14:01 | 45.65451 | 9.67041 | 22657 ft | 301 kts | 47° |
| 2026-04-23 14:01 | 45.66608 | 9.69558 | 22709 ft | 318 kts | 69° |
| 2026-04-23 14:01 | 45.67019 | 9.72741 | 22757 ft | 337 kts | 89° |
| 2026-04-23 14:02 | 45.66848 | 9.76187 | 22807 ft | 355 kts | 92° |
| 2026-04-23 14:02 | 45.66672 | 9.79797 | 22852 ft | 372 kts | 92° |
| 2026-04-23 14:02 | 45.66475 | 9.83580 | 22890 ft | 388 kts | 92° |
| 2026-04-23 14:02 | 45.66264 | 9.87496 | 22912 ft | 403 kts | 92° |
| 2026-04-23 14:03 | 45.66043 | 9.91535 | 23209 ft | 410 kts | 92° |
| 2026-04-23 14:03 | 45.65821 | 9.95550 | 23754 ft | 412 kts | 92° |
| 2026-04-23 14:03 | 45.65594 | 9.99637 | 24157 ft | 415 kts | 92° |
| 2026-04-23 14:03 | 45.65364 | 10.03759 | 24634 ft | 416 kts | 92° |
| 2026-04-23 14:04 | 45.65209 | 10.07909 | 25098 ft | 416 kts | 85° |
| 2026-04-23 14:04 | 45.65768 | 10.11923 | 25522 ft | 414 kts | 69° |
| 2026-04-23 14:04 | 45.67092 | 10.15553 | 25958 ft | 416 kts | 56° |
| 2026-04-23 14:04 | 45.68699 | 10.18985 | 26355 ft | 419 kts | 56° |
| 2026-04-23 14:05 | 45.70359 | 10.22430 | 26793 ft | 420 kts | 56° |
| 2026-04-23 14:05 | 45.72040 | 10.25864 | 27203 ft | 422 kts | 55° |
| 2026-04-23 14:05 | 45.73745 | 10.29316 | 27591 ft | 424 kts | 55° |
| 2026-04-23 14:05 | 45.75458 | 10.32767 | 28008 ft | 425 kts | 55° |
| 2026-04-23 14:06 | 45.77181 | 10.36231 | 28371 ft | 427 kts | 55° |
| 2026-04-23 14:06 | 45.78905 | 10.39703 | 28782 ft | 428 kts | 55° |
| 2026-04-23 14:06 | 45.80638 | 10.43199 | 29187 ft | 430 kts | 55° |
| 2026-04-23 14:06 | 45.82373 | 10.46703 | 29606 ft | 431 kts | 55° |
| 2026-04-23 14:07 | 45.84102 | 10.50200 | 30141 ft | 430 kts | 55° |
| 2026-04-23 14:07 | 45.87522 | 10.57128 | 31083 ft | 426 kts | 55° |
| 2026-04-23 14:07 | 45.89234 | 10.60603 | 31506 ft | 425 kts | 55° |
| 2026-04-23 14:08 | 45.90939 | 10.64070 | 31881 ft | 424 kts | 55° |
| 2026-04-23 14:08 | 45.92769 | 10.67193 | 32225 ft | 425 kts | 43° |
| 2026-04-23 14:08 | 45.95221 | 10.69574 | 32611 ft | 428 kts | 28° |
| 2026-04-23 14:08 | 45.97985 | 10.71210 | 32989 ft | 429 kts | 25° |
| 2026-04-23 14:09 | 46.00740 | 10.72746 | 33315 ft | 429 kts | 24° |
| 2026-04-23 14:09 | 46.03526 | 10.74253 | 33762 ft | 428 kts | 24° |
| 2026-04-23 14:09 | 46.06316 | 10.75736 | 34153 ft | 427 kts | 24° |
| 2026-04-23 14:09 | 46.09113 | 10.77207 | 34488 ft | 427 kts | 23° |
| 2026-04-23 14:10 | 46.11905 | 10.78671 | 34816 ft | 426 kts | 23° |
| 2026-04-23 14:10 | 46.14686 | 10.80127 | 35073 ft | 426 kts | 23° |
| 2026-04-23 14:10 | 46.17472 | 10.81588 | 35336 ft | 426 kts | 23° |
| 2026-04-23 14:10 | 46.20233 | 10.83038 | 35635 ft | 426 kts | 23° |
| 2026-04-23 14:11 | 46.23014 | 10.84498 | 35868 ft | 426 kts | 23° |
| 2026-04-23 14:11 | 46.25795 | 10.85961 | 36158 ft | 425 kts | 23° |
| 2026-04-23 14:11 | 46.28574 | 10.87425 | 36380 ft | 426 kts | 23° |
| 2026-04-23 14:11 | 46.31362 | 10.88894 | 36624 ft | 426 kts | 23° |
| 2026-04-23 14:12 | 46.34133 | 10.90357 | 36895 ft | 425 kts | 22° |
| 2026-04-23 14:12 | 46.36919 | 10.91828 | 37140 ft | 425 kts | 22° |
| 2026-04-23 14:12 | 46.39710 | 10.93304 | 37385 ft | 425 kts | 22° |
| 2026-04-23 14:12 | 46.42494 | 10.94778 | 37645 ft | 425 kts | 22° |
| 2026-04-23 14:13 | 46.45241 | 10.96234 | 37841 ft | 425 kts | 22° |
| 2026-04-23 14:13 | 46.48027 | 10.97712 | 38093 ft | 424 kts | 22° |
| 2026-04-23 14:13 | 46.50802 | 10.99185 | 38233 ft | 425 kts | 22° |
| 2026-04-23 14:13 | 46.53578 | 11.00662 | 38239 ft | 425 kts | 22° |
| 2026-04-23 14:14 | 46.59139 | 11.03623 | 38167 ft | 423 kts | 22° |
| 2026-04-23 14:14 | 46.64604 | 11.06678 | 38165 ft | 421 kts | 31° |
| 2026-04-23 14:15 | 46.69562 | 11.11191 | 38193 ft | 421 kts | 33° |
| 2026-04-23 14:15 | 46.74528 | 11.15764 | 38232 ft | 423 kts | 34° |
| 2026-04-23 14:16 | 46.79488 | 11.20371 | 38227 ft | 422 kts | 34° |
| 2026-04-23 14:16 | 46.84424 | 11.24969 | 38224 ft | 424 kts | 34° |
| 2026-04-23 14:17 | 46.89410 | 11.29623 | 38220 ft | 425 kts | 34° |
| 2026-04-23 14:17 | 46.94391 | 11.34283 | 38252 ft | 424 kts | 34° |
| 2026-04-23 14:18 | 46.96993 | 11.36331 | 38179 ft | 426 kts | 21° |
| 2026-04-23 14:18 | 46.99887 | 11.37230 | 38288 ft | 427 kts | 6° |
| 2026-04-23 14:18 | 47.05878 | 11.37493 | 38225 ft | 431 kts | 3° |
| 2026-04-23 14:19 | 47.11872 | 11.37516 | 38224 ft | 432 kts | 2° |
| 2026-04-23 14:19 | 47.17883 | 11.37473 | 38249 ft | 432 kts | 2° |
| 2026-04-23 14:20 | 47.23866 | 11.37415 | 38242 ft | 431 kts | 2° |
| 2026-04-23 14:20 | 47.29871 | 11.37357 | 38232 ft | 431 kts | 2° |
| 2026-04-23 14:21 | 47.35869 | 11.37298 | 38204 ft | 431 kts | 2° |
| 2026-04-23 14:21 | 47.41881 | 11.37239 | 38247 ft | 431 kts | 2° |
| 2026-04-23 14:22 | 47.47849 | 11.37181 | 38244 ft | 430 kts | 2° |
| 2026-04-23 14:22 | 47.53842 | 11.37121 | 38254 ft | 430 kts | 2° |
| 2026-04-23 14:23 | 47.59830 | 11.37062 | 38260 ft | 430 kts | 2° |
| 2026-04-23 14:23 | 47.65817 | 11.37002 | 38269 ft | 430 kts | 2° |
| 2026-04-23 14:24 | 47.71783 | 11.36943 | 38273 ft | 430 kts | 2° |
| 2026-04-23 14:24 | 47.77774 | 11.36883 | 38279 ft | 430 kts | 2° |
| 2026-04-23 14:25 | 47.83739 | 11.36824 | 38284 ft | 430 kts | 2° |
| 2026-04-23 14:25 | 47.89722 | 11.36942 | 38288 ft | 430 kts | 4° |
| 2026-04-23 14:26 | 47.95727 | 11.37081 | 38290 ft | 431 kts | 4° |
| 2026-04-23 14:26 | 48.01731 | 11.37214 | 38288 ft | 431 kts | 4° |
| 2026-04-23 14:27 | 48.07693 | 11.37346 | 38295 ft | 431 kts | 4° |
| 2026-04-23 14:27 | 48.13700 | 11.37479 | 38293 ft | 431 kts | 4° |
| 2026-04-23 14:28 | 48.19718 | 11.37612 | 38291 ft | 431 kts | 4° |
| 2026-04-23 14:28 | 48.25686 | 11.37744 | 38289 ft | 432 kts | 4° |
| 2026-04-23 14:29 | 48.31710 | 11.37879 | 38287 ft | 431 kts | 4° |
| 2026-04-23 14:29 | 48.37715 | 11.38013 | 38276 ft | 431 kts | 4° |
| 2026-04-23 14:30 | 48.43689 | 11.38146 | 38276 ft | 431 kts | 4° |
| 2026-04-23 14:30 | 48.49689 | 11.38281 | 38271 ft | 431 kts | 4° |
| 2026-04-23 14:31 | 48.55691 | 11.38415 | 38274 ft | 431 kts | 4° |
| 2026-04-23 14:31 | 48.61681 | 11.38550 | 38270 ft | 430 kts | 4° |
| 2026-04-23 14:32 | 48.67671 | 11.38685 | 38267 ft | 429 kts | 4° |
| 2026-04-23 14:32 | 48.73602 | 11.38820 | 38266 ft | 429 kts | 4° |
| 2026-04-23 14:33 | 48.79575 | 11.38955 | 38267 ft | 428 kts | 5° |
| 2026-04-23 14:33 | 48.85549 | 11.39090 | 38266 ft | 428 kts | 5° |
| 2026-04-23 14:34 | 48.91462 | 11.39225 | 38271 ft | 427 kts | 5° |
| 2026-04-23 14:34 | 48.97385 | 11.39360 | 38271 ft | 427 kts | 5° |
| 2026-04-23 14:35 | 49.03340 | 11.39497 | 38278 ft | 426 kts | 5° |
| 2026-04-23 14:35 | 49.09277 | 11.39633 | 38275 ft | 426 kts | 5° |
| 2026-04-23 14:36 | 49.15214 | 11.39769 | 38274 ft | 426 kts | 5° |
| 2026-04-23 14:36 | 49.21103 | 11.39905 | 38273 ft | 425 kts | 5° |
| 2026-04-23 14:37 | 49.27022 | 11.40041 | 38274 ft | 425 kts | 5° |
| 2026-04-23 14:37 | 49.32950 | 11.40179 | 38274 ft | 425 kts | 5° |
| 2026-04-23 14:38 | 49.38876 | 11.40316 | 38275 ft | 425 kts | 5° |
| 2026-04-23 14:38 | 49.44758 | 11.40454 | 38275 ft | 426 kts | 5° |
| 2026-04-23 14:39 | 49.50684 | 11.40591 | 38268 ft | 425 kts | 5° |
| 2026-04-23 14:39 | 49.56612 | 11.40671 | 38269 ft | 427 kts | 3° |
| 2026-04-23 14:40 | 49.62560 | 11.40511 | 38266 ft | 427 kts | 3° |
| 2026-04-23 14:40 | 49.68496 | 11.40380 | 38266 ft | 427 kts | 3° |
| 2026-04-23 14:41 | 49.74416 | 11.40251 | 38270 ft | 427 kts | 3° |
| 2026-04-23 14:41 | 49.80364 | 11.40122 | 38266 ft | 427 kts | 3° |
| 2026-04-23 14:42 | 49.86318 | 11.39991 | 38259 ft | 427 kts | 3° |
| 2026-04-23 14:42 | 49.92236 | 11.39862 | 38270 ft | 428 kts | 3° |
| 2026-04-23 14:43 | 49.98185 | 11.39732 | 38270 ft | 428 kts | 3° |
| 2026-04-23 14:43 | 50.04154 | 11.39601 | 38266 ft | 429 kts | 3° |
| 2026-04-23 14:44 | 50.10131 | 11.39469 | 38265 ft | 428 kts | 3° |
| 2026-04-23 14:44 | 50.15078 | 11.39360 | 38280 ft | 428 kts | 3° |
| 2026-04-23 14:45 | 50.22004 | 11.39206 | 38260 ft | 427 kts | 3° |
| 2026-04-23 14:45 | 50.27956 | 11.39075 | 38260 ft | 426 kts | 3° |
| 2026-04-23 14:46 | 50.32879 | 11.38965 | 38277 ft | 426 kts | 3° |
| 2026-04-23 14:46 | 50.38791 | 11.38833 | 38277 ft | 425 kts | 3° |
| 2026-04-23 14:47 | 50.44722 | 11.38700 | 38273 ft | 425 kts | 3° |
| 2026-04-23 14:47 | 50.50626 | 11.38568 | 38273 ft | 424 kts | 3° |
| 2026-04-23 14:48 | 50.56539 | 11.38434 | 38266 ft | 424 kts | 3° |
| 2026-04-23 14:48 | 50.62439 | 11.38302 | 38263 ft | 424 kts | 3° |
| 2026-04-23 14:49 | 50.68304 | 11.38170 | 38270 ft | 424 kts | 3° |
| 2026-04-23 14:49 | 50.74208 | 11.38036 | 38267 ft | 424 kts | 3° |
| 2026-04-23 14:50 | 50.80112 | 11.37902 | 38268 ft | 424 kts | 3° |
| 2026-04-23 14:50 | 50.86033 | 11.37767 | 38264 ft | 425 kts | 2° |
| 2026-04-23 14:51 | 50.91916 | 11.37633 | 38267 ft | 425 kts | 2° |
| 2026-04-23 14:51 | 50.97850 | 11.37497 | 38263 ft | 426 kts | 2° |
| 2026-04-23 14:52 | 51.03793 | 11.37361 | 38264 ft | 426 kts | 2° |
| 2026-04-23 14:52 | 51.09682 | 11.37226 | 38260 ft | 426 kts | 2° |
| 2026-04-23 14:53 | 51.15627 | 11.37089 | 38258 ft | 426 kts | 2° |
| 2026-04-23 14:53 | 51.21563 | 11.36952 | 38259 ft | 427 kts | 2° |
| 2026-04-23 14:54 | 51.27509 | 11.36814 | 38269 ft | 427 kts | 2° |
| 2026-04-23 14:54 | 51.33461 | 11.36676 | 38254 ft | 427 kts | 2° |
| 2026-04-23 14:55 | 51.39372 | 11.36538 | 38261 ft | 427 kts | 2° |
| 2026-04-23 14:55 | 51.45328 | 11.36399 | 38262 ft | 427 kts | 2° |
| 2026-04-23 14:56 | 51.51284 | 11.36260 | 38260 ft | 428 kts | 2° |
| 2026-04-23 14:56 | 51.57211 | 11.36120 | 38266 ft | 428 kts | 2° |
| 2026-04-23 14:57 | 51.63161 | 11.35981 | 38260 ft | 428 kts | 2° |
| 2026-04-23 14:57 | 51.69109 | 11.35840 | 38267 ft | 427 kts | 2° |
| 2026-04-23 14:58 | 51.75062 | 11.35700 | 38263 ft | 427 kts | 2° |
| 2026-04-23 14:58 | 51.81004 | 11.35558 | 38266 ft | 427 kts | 2° |
| 2026-04-23 14:59 | 51.86911 | 11.35418 | 38265 ft | 427 kts | 2° |
| 2026-04-23 14:59 | 51.92856 | 11.35276 | 38265 ft | 427 kts | 1° |
| 2026-04-23 15:00 | 51.98808 | 11.35135 | 38267 ft | 427 kts | 1° |
| 2026-04-23 15:00 | 52.04731 | 11.34996 | 38259 ft | 427 kts | 2° |
| 2026-04-23 15:01 | 52.10620 | 11.35942 | 38261 ft | 425 kts | 9° |
| 2026-04-23 15:01 | 52.16496 | 11.37086 | 38260 ft | 425 kts | 9° |
| 2026-04-23 15:02 | 52.22344 | 11.38240 | 38257 ft | 426 kts | 9° |
| 2026-04-23 15:02 | 52.28239 | 11.39409 | 38246 ft | 426 kts | 8° |
| 2026-04-23 15:03 | 52.34132 | 11.40579 | 38252 ft | 426 kts | 8° |
| 2026-04-23 15:03 | 52.40030 | 11.41756 | 38241 ft | 426 kts | 8° |
| 2026-04-23 15:04 | 52.45888 | 11.42929 | 38246 ft | 426 kts | 8° |
| 2026-04-23 15:04 | 52.51782 | 11.44113 | 38244 ft | 426 kts | 8° |
| 2026-04-23 15:05 | 52.57671 | 11.45298 | 38240 ft | 427 kts | 8° |
| 2026-04-23 15:05 | 52.63572 | 11.46489 | 38238 ft | 427 kts | 8° |
| 2026-04-23 15:06 | 52.69428 | 11.47674 | 38236 ft | 427 kts | 8° |
| 2026-04-23 15:06 | 52.75291 | 11.48864 | 38236 ft | 427 kts | 8° |
| 2026-04-23 15:07 | 52.81186 | 11.50063 | 38232 ft | 427 kts | 8° |
| 2026-04-23 15:07 | 52.87078 | 11.51264 | 38229 ft | 427 kts | 8° |
| 2026-04-23 15:08 | 52.92951 | 11.52465 | 38226 ft | 426 kts | 8° |
| 2026-04-23 15:09 | 53.01793 | 11.54280 | 38224 ft | 426 kts | 8° |
| 2026-04-23 15:09 | 53.07684 | 11.55491 | 38227 ft | 426 kts | 8° |
| 2026-04-23 15:10 | 53.12588 | 11.56503 | 38218 ft | 426 kts | 8° |
| 2026-04-23 15:10 | 53.19441 | 11.57924 | 38219 ft | 426 kts | 7° |
| 2026-04-23 15:11 | 53.25323 | 11.59250 | 38204 ft | 425 kts | 14° |
| 2026-04-23 15:11 | 53.31005 | 11.62030 | 38205 ft | 425 kts | 16° |
| 2026-04-23 15:12 | 53.36648 | 11.64819 | 38206 ft | 425 kts | 17° |
| 2026-04-23 15:12 | 53.42318 | 11.67642 | 38204 ft | 425 kts | 16° |
| 2026-04-23 15:13 | 53.47990 | 11.70476 | 38205 ft | 425 kts | 16° |
| 2026-04-23 15:13 | 53.53670 | 11.73321 | 38204 ft | 425 kts | 16° |
| 2026-04-23 15:14 | 53.59301 | 11.76149 | 38205 ft | 424 kts | 16° |
| 2026-04-23 15:14 | 53.64950 | 11.78995 | 38202 ft | 424 kts | 16° |
| 2026-04-23 15:15 | 53.70621 | 11.81860 | 38199 ft | 424 kts | 16° |
| 2026-04-23 15:15 | 53.76275 | 11.84723 | 38201 ft | 424 kts | 16° |
| 2026-04-23 15:16 | 53.81938 | 11.87600 | 38205 ft | 424 kts | 16° |
| 2026-04-23 15:16 | 53.87555 | 11.90461 | 38210 ft | 424 kts | 16° |
| 2026-04-23 15:17 | 53.93217 | 11.93353 | 38038 ft | 422 kts | 16° |
| 2026-04-23 15:17 | 53.96052 | 11.94805 | 36883 ft | 430 kts | 16° |
| 2026-04-23 15:17 | 53.98933 | 11.96282 | 36190 ft | 430 kts | 16° |
| 2026-04-23 15:17 | 54.01780 | 11.97743 | 35660 ft | 425 kts | 16° |
| 2026-04-23 15:18 | 54.04581 | 11.99184 | 35001 ft | 425 kts | 16° |
| 2026-04-23 15:18 | 54.07420 | 12.00645 | 34307 ft | 426 kts | 16° |
| 2026-04-23 15:18 | 54.10260 | 12.02110 | 33505 ft | 427 kts | 16° |
| 2026-04-23 15:18 | 54.13110 | 12.03582 | 32695 ft | 428 kts | 16° |
| 2026-04-23 15:19 | 54.15964 | 12.05058 | 31885 ft | 429 kts | 16° |
| 2026-04-23 15:19 | 54.18825 | 12.06538 | 31081 ft | 430 kts | 16° |
| 2026-04-23 15:19 | 54.21701 | 12.08030 | 30275 ft | 431 kts | 16° |
| 2026-04-23 15:19 | 54.24583 | 12.09526 | 29302 ft | 433 kts | 16° |
| 2026-04-23 15:20 | 54.26497 | 12.10521 | 28603 ft | 435 kts | 16° |
| 2026-04-23 15:20 | 54.30359 | 12.12532 | 27221 ft | 440 kts | 16° |
| 2026-04-23 15:20 | 54.33296 | 12.14064 | 26256 ft | 441 kts | 15° |
| 2026-04-23 15:20 | 54.36248 | 12.15605 | 25394 ft | 442 kts | 15° |
| 2026-04-23 15:21 | 54.39160 | 12.17129 | 24767 ft | 436 kts | 15° |
| 2026-04-23 15:21 | 54.42066 | 12.18652 | 24134 ft | 432 kts | 15° |
| 2026-04-23 15:21 | 54.44928 | 12.20154 | 23443 ft | 429 kts | 15° |
| 2026-04-23 15:21 | 54.47767 | 12.21646 | 22740 ft | 424 kts | 15° |
| 2026-04-23 15:22 | 54.50583 | 12.23128 | 22095 ft | 419 kts | 15° |
| 2026-04-23 15:22 | 54.53361 | 12.24592 | 21469 ft | 414 kts | 15° |
| 2026-04-23 15:22 | 54.56064 | 12.26019 | 20871 ft | 410 kts | 15° |
| 2026-04-23 15:22 | 54.58783 | 12.27456 | 20268 ft | 406 kts | 15° |
| 2026-04-23 15:23 | 54.61520 | 12.28529 | 19597 ft | 401 kts | 3° |
| 2026-04-23 15:23 | 54.64304 | 12.28775 | 19048 ft | 397 kts | 2° |
| 2026-04-23 15:23 | 54.67053 | 12.29035 | 18484 ft | 393 kts | 2° |
| 2026-04-23 15:23 | 54.69747 | 12.29274 | 17854 ft | 390 kts | 2° |
| 2026-04-23 15:24 | 54.72450 | 12.29506 | 17258 ft | 386 kts | 1° |
| 2026-04-23 15:24 | 54.75125 | 12.29733 | 16694 ft | 383 kts | 1° |
| 2026-04-23 15:24 | 54.77769 | 12.29955 | 16144 ft | 379 kts | 2° |
| 2026-04-23 15:24 | 54.80393 | 12.30175 | 15592 ft | 376 kts | 2° |
| 2026-04-23 15:25 | 54.83001 | 12.30393 | 15075 ft | 373 kts | 2° |
| 2026-04-23 15:25 | 54.85583 | 12.30609 | 14549 ft | 370 kts | 2° |
| 2026-04-23 15:25 | 54.88112 | 12.30821 | 14037 ft | 367 kts | 2° |
| 2026-04-23 15:25 | 54.90687 | 12.31036 | 13465 ft | 365 kts | 2° |
| 2026-04-23 15:26 | 54.93211 | 12.31325 | 12916 ft | 362 kts | 8° |
| 2026-04-23 15:26 | 54.95557 | 12.32718 | 12338 ft | 365 kts | 26° |
| 2026-04-23 15:26 | 54.97679 | 12.35097 | 11987 ft | 359 kts | 30° |
| 2026-04-23 15:26 | 54.99729 | 12.37461 | 11788 ft | 347 kts | 30° |
| 2026-04-23 15:27 | 55.01721 | 12.39759 | 11597 ft | 337 kts | 30° |
| 2026-04-23 15:27 | 55.03643 | 12.41992 | 11418 ft | 326 kts | 30° |
| 2026-04-23 15:27 | 55.05502 | 12.44160 | 11258 ft | 316 kts | 30° |
| 2026-04-23 15:27 | 55.07300 | 12.46260 | 11102 ft | 305 kts | 30° |
| 2026-04-23 15:28 | 55.09035 | 12.48290 | 10961 ft | 296 kts | 29° |
| 2026-04-23 15:28 | 55.10695 | 12.50236 | 10815 ft | 287 kts | 29° |
| 2026-04-23 15:28 | 55.12327 | 12.52149 | 10681 ft | 278 kts | 29° |
| 2026-04-23 15:28 | 55.13907 | 12.54005 | 10548 ft | 269 kts | 29° |
| 2026-04-23 15:29 | 55.15439 | 12.55805 | 10415 ft | 260 kts | 29° |
| 2026-04-23 15:29 | 55.16915 | 12.57541 | 10291 ft | 251 kts | 29° |
| 2026-04-23 15:29 | 55.18355 | 12.59236 | 10052 ft | 249 kts | 28° |
| 2026-04-23 15:29 | 55.19809 | 12.60950 | 9756 ft | 255 kts | 29° |
| 2026-04-23 15:30 | 55.21290 | 12.62697 | 9472 ft | 258 kts | 29° |
| 2026-04-23 15:30 | 55.22782 | 12.64456 | 9197 ft | 259 kts | 28° |
| 2026-04-23 15:30 | 55.24335 | 12.66019 | 8888 ft | 258 kts | 24° |
| 2026-04-23 15:30 | 55.25910 | 12.67522 | 8618 ft | 257 kts | 24° |
| 2026-04-23 15:31 | 55.27478 | 12.69035 | 8353 ft | 257 kts | 24° |
| 2026-04-23 15:31 | 55.29040 | 12.70552 | 8064 ft | 256 kts | 25° |
| 2026-04-23 15:31 | 55.30581 | 12.72056 | 7759 ft | 255 kts | 25° |
| 2026-04-23 15:31 | 55.32128 | 12.73569 | 7450 ft | 254 kts | 25° |
| 2026-04-23 15:32 | 55.33738 | 12.74728 | 7112 ft | 247 kts | 5° |
| 2026-04-23 15:32 | 55.35412 | 12.74466 | 6800 ft | 242 kts | 339° |
| 2026-04-23 15:32 | 55.36820 | 12.72918 | 6524 ft | 240 kts | 317° |
| 2026-04-23 15:32 | 55.37929 | 12.70727 | 6220 ft | 239 kts | 313° |
| 2026-04-23 15:33 | 55.38987 | 12.68522 | 5924 ft | 237 kts | 312° |
| 2026-04-23 15:33 | 55.39694 | 12.67016 | 5731 ft | 236 kts | 311° |
| 2026-04-23 15:33 | 55.41063 | 12.64057 | 5357 ft | 233 kts | 311° |
| 2026-04-23 15:33 | 55.41748 | 12.62560 | 5167 ft | 232 kts | 311° |
| 2026-04-23 15:34 | 55.42595 | 12.60181 | 4842 ft | 236 kts | 291° |
| 2026-04-23 15:34 | 55.42639 | 12.57245 | 4436 ft | 250 kts | 259° |
| 2026-04-23 15:34 | 55.41731 | 12.54573 | 4022 ft | 265 kts | 228° |
| 2026-04-23 15:34 | 55.40309 | 12.52486 | 3668 ft | 266 kts | 225° |
| 2026-04-23 15:35 | 55.38891 | 12.50383 | 3341 ft | 266 kts | 225° |
| 2026-04-23 15:35 | 55.37724 | 12.47963 | 2993 ft | 253 kts | 253° |
| 2026-04-23 15:35 | 55.37582 | 12.45097 | 2924 ft | 225 kts | 291° |
| 2026-04-23 15:35 | 55.38347 | 12.42898 | 2956 ft | 207 kts | 314° |
| 2026-04-23 15:36 | 55.39322 | 12.41025 | 2951 ft | 208 kts | 315° |
| 2026-04-23 15:36 | 55.40296 | 12.39177 | 2948 ft | 208 kts | 315° |
| 2026-04-23 15:36 | 55.41290 | 12.37362 | 2944 ft | 200 kts | 323° |
| 2026-04-23 15:36 | 55.42556 | 12.36665 | 2895 ft | 193 kts | 3° |
| 2026-04-23 15:37 | 55.43897 | 12.37205 | 2969 ft | 200 kts | 11° |
| 2026-04-23 15:37 | 55.45185 | 12.38051 | 2931 ft | 203 kts | 30° |
| 2026-04-23 15:37 | 55.46173 | 12.39857 | 2939 ft | 209 kts | 45° |
| 2026-04-23 15:37 | 55.47156 | 12.41734 | 3004 ft | 207 kts | 38° |
| 2026-04-23 15:38 | 55.48229 | 12.43445 | 2854 ft | 208 kts | 36° |
| 2026-04-23 15:38 | 55.49321 | 12.45116 | 2594 ft | 207 kts | 34° |
| 2026-04-23 15:38 | 55.50408 | 12.46783 | 2352 ft | 206 kts | 36° |
| 2026-04-23 15:38 | 55.51481 | 12.48433 | 2087 ft | 204 kts | 36° |
| 2026-04-23 15:39 | 55.52534 | 12.50055 | 1798 ft | 203 kts | 36° |
| 2026-04-23 15:39 | 55.53594 | 12.51687 | 1515 ft | 201 kts | 36° |
| 2026-04-23 15:39 | 55.54644 | 12.53304 | 1257 ft | 195 kts | 36° |
| 2026-04-23 15:39 | 55.55602 | 12.54786 | 1010 ft | 169 kts | 35° |
| 2026-04-23 15:40 | 55.56427 | 12.56056 | 779 ft | 148 kts | 35° |
| 2026-04-23 15:40 | 55.57195 | 12.57241 | 577 ft | 146 kts | 35° |
| 2026-04-23 15:40 | 55.57956 | 12.58412 | 385 ft | 144 kts | 37° |
| 2026-04-23 15:40 | 55.58715 | 12.59567 | 170 ft | 146 kts | 37° |
| 2026-04-23 15:41 | 55.59472 | 12.60735 | 52 ft | 139 kts | 34° |
| 2026-04-23 15:41 | 55.60150 | 12.61769 | 28 ft | 103 kts | 41° |
| 2026-04-23 15:41 | 55.60536 | 12.62384 | 28 ft | 55 kts | 41° |
| 2026-04-23 15:41 | 55.60807 | 12.62770 | 27 ft | 49 kts | 29° |
| 2026-04-23 15:42 | 55.61042 | 12.62890 | 26 ft | 29 kts | 11° |
| 2026-04-23 15:42 | 55.61220 | 12.63060 | 26 ft | 30 kts | 40° |
| 2026-04-23 15:42 | 55.61382 | 12.63310 | 26 ft | 32 kts | 41° |
| 2026-04-23 15:42 | 55.61553 | 12.63576 | 26 ft | 33 kts | 41° |
| 2026-04-23 15:43 | 55.61729 | 12.63852 | 26 ft | 34 kts | 41° |
| 2026-04-23 15:43 | 55.61923 | 12.64113 | 26 ft | 36 kts | 27° |
| 2026-04-23 15:43 | 55.62145 | 12.64300 | 27 ft | 28 kts | 26° |
| 2026-04-23 15:43 | 55.62271 | 12.64476 | 26 ft | 23 kts | 67° |
| 2026-04-23 15:44 | 55.62318 | 12.64710 | 26 ft | 17 kts | 97° |
| 2026-04-23 15:44 | 55.62253 | 12.64902 | 26 ft | 19 kts | 123° |
| 2026-04-23 15:44 | 55.62183 | 12.65111 | 26 ft | 16 kts | 90° |
| 2026-04-23 15:44 | 55.62275 | 12.65194 | 26 ft | 14 kts | 1° |
| 2026-04-23 15:45 | 55.62376 | 12.65203 | 27 ft | 16 kts | 359° |
| 2026-04-23 15:45 | 55.62441 | 12.65304 | 28 ft | 16 kts | 95° |
| 2026-04-23 15:45 | 55.62442 | 12.65511 | 30 ft | 18 kts | 89° |
| 2026-04-23 15:45 | 55.62444 | 12.65744 | 26 ft | 18 kts | 88° |
| 2026-04-23 15:46 | 55.62466 | 12.65836 | 29 ft | 8 kts | 17° |
| 2026-04-23 15:46 | 55.62516 | 12.65838 | 26 ft | 2 kts | 358° |
| 2026-04-23 15:46 | 55.62528 | 12.65837 | 26 ft | 0 kts | 358° |
| 2026-04-23 15:46 | 55.62530 | 12.65837 | 26 ft | 0 kts | 359° |